Terminal Aerodrome Forecast
Issued by NWS

Home | Current Version | Previous Version | Text Only | Print | Product List | Glossary On
Versions: 1 2 3 4 5 6 7 8 9 10 11 12 13 14 15 16
000
FTUS45 KGJT 061517 AAA
TAFASE
TAF AMD
KASE 061517Z 0615/0712 18014G25KT P6SM VCSH FEW060 OVC110
     FM061600 17010KT P6SM VCTS BKN200CB
     FM062000 18013G23KT P6SM VCTS BKN250CB
     FM070000 17011G19KT P6SM VCSH BKN200
     FM070400 18010KT P6SM VCSH BKN250
     FM070800 17006KT P6SM SCT250=

USA.gov is the U.S. government's official web portal to all federal, state and local government web resources and services.